createdAt,value
2022-08-28T00:02:52.725Z,16.65
2022-08-28T00:06:01.855Z,16.71
2022-08-28T00:09:12.241Z,16.76
2022-08-28T00:12:21.878Z,16.75
2022-08-28T00:15:35.186Z,16.75
2022-08-28T00:18:43.344Z,16.75
2022-08-28T00:21:55.611Z,16.70
2022-08-28T00:25:06.594Z,16.62
2022-08-28T00:28:24.118Z,16.70
2022-08-28T00:31:33.944Z,16.71
2022-08-28T00:34:42.594Z,16.77
2022-08-28T00:37:51.880Z,16.79
2022-08-28T00:41:04.835Z,16.80
2022-08-28T00:44:22.224Z,16.79
2022-08-28T00:47:30.513Z,16.74
2022-08-28T00:50:56.741Z,16.64
2022-08-28T00:54:09.367Z,16.56
2022-08-28T00:57:27.103Z,16.73
2022-08-28T01:00:42.520Z,16.74
2022-08-28T01:03:51.137Z,16.76
2022-08-28T01:07:05.252Z,16.66
2022-08-28T01:10:18.494Z,16.69
2022-08-28T01:13:30.026Z,16.75
2022-08-28T01:16:38.835Z,16.70
2022-08-28T01:19:57.039Z,16.74
2022-08-28T01:23:21.591Z,16.76
2022-08-28T01:26:32.871Z,16.79
2022-08-28T01:29:41.936Z,16.78
2022-08-28T01:32:57.186Z,16.75
2022-08-28T01:36:05.987Z,16.78
2022-08-28T01:39:19.709Z,16.83
2022-08-28T01:42:29.711Z,16.73
2022-08-28T01:45:38.854Z,16.81
2022-08-28T01:48:47.549Z,16.86
2022-08-28T01:51:57.867Z,16.85
2022-08-28T01:55:08.195Z,16.86
2022-08-28T01:58:18.950Z,16.91
2022-08-28T02:01:28.127Z,17.09
2022-08-28T02:04:37.465Z,17.10
2022-08-28T02:07:46.392Z,17.03
2022-08-28T02:10:54.689Z,17.03
2022-08-28T02:14:05.243Z,16.97
2022-08-28T02:17:13.507Z,16.91
2022-08-28T02:20:22.421Z,16.94
2022-08-28T02:23:30.943Z,16.91
2022-08-28T02:26:40.586Z,16.89
2022-08-28T02:29:50.395Z,16.82
2022-08-28T02:33:00.679Z,16.80
2022-08-28T02:36:13.133Z,16.72
2022-08-28T02:39:22.009Z,16.76
2022-08-28T02:42:30.455Z,16.85
2022-08-28T02:45:40.057Z,16.86
2022-08-28T02:48:48.245Z,16.86
2022-08-28T02:51:57.643Z,16.85
2022-08-28T02:55:08.126Z,16.75
2022-08-28T02:58:17.344Z,16.69
2022-08-28T03:01:26.930Z,16.70
2022-08-28T03:04:35.600Z,16.81
2022-08-28T03:07:43.943Z,16.88
2022-08-28T03:10:52.437Z,16.90
2022-08-28T03:14:03.249Z,16.79
2022-08-28T03:17:12.812Z,16.80
2022-08-28T03:20:21.511Z,16.85
2022-08-28T03:23:30.249Z,16.95
2022-08-28T03:26:38.448Z,16.97
2022-08-28T03:29:46.667Z,16.95
2022-08-28T03:32:56.229Z,16.97
2022-08-28T03:36:05.417Z,17.02
2022-08-28T03:39:14.687Z,17.16
2022-08-28T03:42:24.159Z,17.20
2022-08-28T03:45:32.846Z,17.16
2022-08-28T03:48:44.896Z,17.10
2022-08-28T03:51:53.269Z,17.02
2022-08-28T03:55:02.147Z,17.03
2022-08-28T03:58:10.721Z,17.06
2022-08-28T04:01:28.190Z,17.06
2022-08-28T04:04:38.050Z,17.09
2022-08-28T04:07:46.747Z,17.11
2022-08-28T04:10:55.141Z,17.05
2022-08-28T04:14:03.347Z,17.16
2022-08-28T04:17:11.884Z,17.22
2022-08-28T04:20:22.131Z,17.28
2022-08-28T04:23:30.902Z,17.29
2022-08-28T04:26:39.391Z,17.30
2022-08-28T04:29:48.184Z,17.22
2022-08-28T04:32:56.332Z,17.23
2022-08-28T04:36:11.100Z,17.20
2022-08-28T04:39:20.498Z,17.32
2022-08-28T04:42:29.228Z,17.27
2022-08-28T04:45:40.995Z,17.38
2022-08-28T04:48:49.535Z,17.36
2022-08-28T04:51:59.347Z,17.28
2022-08-28T04:55:09.152Z,17.25
2022-08-28T04:58:19.722Z,17.29
2022-08-28T05:01:32.736Z,17.30
2022-08-28T05:04:40.878Z,17.29
2022-08-28T05:07:50.877Z,17.32
2022-08-28T05:11:00.578Z,17.38
2022-08-28T05:14:15.371Z,17.45
2022-08-28T05:17:24.586Z,17.52
2022-08-28T05:20:38.289Z,17.69
2022-08-28T05:23:48.853Z,17.63
2022-08-28T05:26:57.533Z,17.59
2022-08-28T05:30:07.697Z,17.71
2022-08-28T05:33:17.653Z,17.75
2022-08-28T05:36:32.491Z,17.81
2022-08-28T05:39:43.650Z,17.90
2022-08-28T05:42:53.208Z,18.02
2022-08-28T05:46:05.126Z,18.15
2022-08-28T05:49:14.749Z,18.18
2022-08-28T05:52:23.135Z,18.25
2022-08-28T05:55:32.974Z,18.27
2022-08-28T05:58:41.583Z,18.30
2022-08-28T06:01:51.220Z,18.34
2022-08-28T06:05:00.100Z,18.26
2022-08-28T06:08:08.735Z,18.30
2022-08-28T06:11:21.773Z,18.40
2022-08-28T06:14:33.522Z,18.34
2022-08-28T06:17:42.697Z,18.45
2022-08-28T06:20:50.973Z,18.57
2022-08-28T06:24:00.550Z,18.53
2022-08-28T06:27:10.329Z,18.55
2022-08-28T06:30:18.817Z,18.42
2022-08-28T06:33:27.227Z,18.45
2022-08-28T06:36:38.633Z,18.53
2022-08-28T06:39:47.143Z,18.51
2022-08-28T06:42:56.660Z,18.36
2022-08-28T06:46:06.236Z,18.48
2022-08-28T06:49:15.005Z,18.48
2022-08-28T06:52:23.477Z,18.61
2022-08-28T06:55:32.256Z,18.83
2022-08-28T06:58:50.041Z,18.92
2022-08-28T07:02:00.111Z,18.93
2022-08-28T07:05:10.192Z,19.02
2022-08-28T07:08:18.826Z,18.93
2022-08-28T07:11:31.411Z,19.12
2022-08-28T07:14:40.937Z,19.20
2022-08-28T07:17:49.417Z,19.17
2022-08-28T07:21:00.481Z,19.36
2022-08-28T07:24:10.525Z,19.58
2022-08-28T07:27:19.247Z,19.62
2022-08-28T07:30:28.997Z,19.57
2022-08-28T07:33:39.559Z,19.74
2022-08-28T07:36:48.773Z,19.45
2022-08-28T07:39:57.440Z,19.36
2022-08-28T07:43:23.463Z,19.25
2022-08-28T07:46:33.531Z,19.40
2022-08-28T07:49:43.285Z,19.27
2022-08-28T07:52:51.934Z,19.06
2022-08-28T07:56:00.513Z,19.27
2022-08-28T07:59:12.088Z,19.36
2022-08-28T08:02:26.764Z,19.18
2022-08-28T08:05:35.108Z,19.20
2022-08-28T08:08:43.265Z,19.46
2022-08-28T08:11:51.671Z,19.60
2022-08-28T08:14:59.814Z,19.68
2022-08-28T08:18:09.394Z,19.67
2022-08-28T08:21:21.988Z,19.45
2022-08-28T08:24:30.935Z,19.08
2022-08-28T08:27:42.894Z,19.18
2022-08-28T08:30:52.166Z,19.17
2022-08-28T08:34:06.834Z,19.28
2022-08-28T08:37:15.851Z,19.34
2022-08-28T08:40:24.551Z,19.30
2022-08-28T08:43:50.349Z,19.27
2022-08-28T08:47:17.287Z,18.94
2022-08-28T08:50:31.759Z,18.75
2022-08-28T08:53:54.598Z,18.78
2022-08-28T08:57:04.325Z,18.82
2022-08-28T09:00:16.191Z,18.37
2022-08-28T09:03:34.250Z,18.41
2022-08-28T09:06:51.154Z,18.29
2022-08-28T09:10:00.006Z,17.86
2022-08-28T09:13:25.062Z,17.83
2022-08-28T09:16:40.014Z,17.96
2022-08-28T09:19:48.624Z,18.10
2022-08-28T09:23:02.062Z,18.08
2022-08-28T09:26:13.227Z,17.99
2022-08-28T09:29:30.451Z,17.90
2022-08-28T09:32:43.810Z,17.89
2022-08-28T09:35:54.202Z,17.93
2022-08-28T09:39:13.111Z,18.09
2022-08-28T09:42:42.211Z,18.30
2022-08-28T09:45:59.479Z,18.45
2022-08-28T09:49:14.647Z,18.45
2022-08-28T09:52:25.410Z,18.53
2022-08-28T09:55:51.537Z,18.50
2022-08-28T09:59:06.943Z,18.57
2022-08-28T10:02:37.122Z,18.62
2022-08-28T10:06:05.215Z,18.65
2022-08-28T10:09:29.371Z,18.48
2022-08-28T10:12:59.414Z,18.48
2022-08-28T10:16:24.763Z,18.33
2022-08-28T10:19:51.016Z,18.36
2022-08-28T10:23:17.641Z,18.45
2022-08-28T10:26:41.423Z,18.46
2022-08-28T10:30:07.924Z,18.24
2022-08-28T10:33:50.453Z,18.29
2022-08-28T10:37:10.547Z,18.18
2022-08-28T10:40:29.281Z,18.30
2022-08-28T10:43:44.762Z,18.23
2022-08-28T10:47:00.080Z,18.31
2022-08-28T10:50:19.103Z,18.48
2022-08-28T10:53:36.435Z,18.53
2022-08-28T10:56:56.272Z,18.58
2022-08-28T11:00:12.671Z,18.64
2022-08-28T11:03:35.070Z,18.59
2022-08-28T11:06:51.795Z,18.60
2022-08-28T11:10:22.090Z,18.44
2022-08-28T11:13:57.285Z,18.49
2022-08-28T11:17:09.446Z,18.43
2022-08-28T11:20:26.917Z,18.46
2022-08-28T11:23:44.648Z,18.48
2022-08-28T11:27:07.767Z,18.62
2022-08-28T11:30:35.598Z,18.53
2022-08-28T11:33:47.776Z,18.62
2022-08-28T11:37:03.805Z,18.65
2022-08-28T11:40:20.178Z,18.82
2022-08-28T11:43:41.621Z,18.79
2022-08-28T11:46:52.658Z,18.85
2022-08-28T11:50:13.602Z,18.78
2022-08-28T11:53:52.940Z,18.84
2022-08-28T11:57:15.012Z,19.02
2022-08-28T12:00:34.546Z,19.16
2022-08-28T12:03:54.971Z,19.29
2022-08-28T12:07:23.333Z,19.36
2022-08-28T12:10:58.405Z,19.47
2022-08-28T12:14:08.123Z,19.64
2022-08-28T12:17:31.224Z,19.63
2022-08-28T12:21:03.542Z,19.61
2022-08-28T12:24:22.900Z,19.69
2022-08-28T12:27:33.640Z,19.83
2022-08-28T12:30:52.757Z,19.88
2022-08-28T12:34:15.177Z,20.01
2022-08-28T12:37:39.380Z,20.04
2022-08-28T12:41:31.300Z,20.13
2022-08-28T12:44:41.129Z,20.23
2022-08-28T12:47:54.615Z,20.31
2022-08-28T12:58:38.896Z,20.60
2022-08-28T13:01:49.310Z,20.79
2022-08-28T13:05:03.779Z,20.80
2022-08-28T13:08:14.584Z,21.11
2022-08-28T13:11:24.417Z,21.24
2022-08-28T13:14:49.837Z,21.45
2022-08-28T13:18:05.118Z,21.21
2022-08-28T13:21:39.393Z,21.41
2022-08-28T13:24:48.988Z,21.36
2022-08-28T13:28:00.429Z,21.10
2022-08-28T13:31:33.267Z,21.60
2022-08-28T13:34:45.522Z,21.44
2022-08-28T13:37:59.794Z,21.60
2022-08-28T13:41:12.239Z,21.80
2022-08-28T13:44:50.541Z,21.79
2022-08-28T13:47:59.005Z,22.07
2022-08-28T13:51:16.385Z,22.16
2022-08-28T13:54:29.962Z,22.14
2022-08-28T13:57:40.124Z,22.38
2022-08-28T14:00:51.737Z,22.66
2022-08-28T14:03:59.098Z,22.84
2022-08-28T14:07:09.238Z,22.83
2022-08-28T14:10:17.834Z,22.46
2022-08-28T14:13:27.742Z,22.87
2022-08-28T14:16:39.721Z,22.87
2022-08-28T14:19:48.420Z,23.14
2022-08-28T14:22:58.111Z,22.93
2022-08-28T14:26:07.348Z,22.83
2022-08-28T14:29:17.790Z,23.11
2022-08-28T14:32:26.206Z,22.57
2022-08-28T14:35:39.546Z,23.08
2022-08-28T14:38:53.688Z,23.16
2022-08-28T14:42:02.835Z,23.48
2022-08-28T14:45:13.024Z,23.25
2022-08-28T14:48:21.277Z,23.07
2022-08-28T14:51:32.318Z,23.53
2022-08-28T14:54:42.108Z,23.33
2022-08-28T14:57:51.778Z,23.21
2022-08-28T15:01:00.090Z,23.37
2022-08-28T15:04:11.454Z,23.02
2022-08-28T15:07:21.245Z,22.41
2022-08-28T15:10:30.942Z,22.67
2022-08-28T15:13:39.442Z,22.28
2022-08-28T15:16:50.167Z,21.93
2022-08-28T15:20:00.406Z,21.96
2022-08-28T15:23:09.370Z,21.80
2022-08-28T15:26:20.008Z,21.33
2022-08-28T15:29:29.896Z,21.10
2022-08-28T15:32:38.174Z,21.10
2022-08-28T15:35:46.440Z,21.09
2022-08-28T15:39:12.478Z,21.36
2022-08-28T15:42:23.213Z,21.61
2022-08-28T15:45:31.596Z,22.07
2022-08-28T15:48:40.245Z,21.88
2022-08-28T15:51:50.849Z,22.41
2022-08-28T15:54:59.235Z,22.46
2022-08-28T15:58:13.672Z,22.39
2022-08-28T16:01:23.370Z,22.05
2022-08-28T16:04:33.345Z,21.52
2022-08-28T16:07:41.716Z,21.49
2022-08-28T16:10:50.990Z,21.42
2022-08-28T16:14:00.976Z,21.24
2022-08-28T16:17:11.050Z,21.52
2022-08-28T16:20:19.851Z,21.88
2022-08-28T16:23:28.088Z,22.02
2022-08-28T16:26:36.834Z,22.22
2022-08-28T16:29:46.564Z,22.23
2022-08-28T16:32:57.875Z,22.42
2022-08-28T16:36:08.937Z,22.18
2022-08-28T16:39:17.522Z,22.40
2022-08-28T16:42:29.675Z,22.58
2022-08-28T16:45:44.825Z,22.57
2022-08-28T16:48:54.322Z,22.45
2022-08-28T16:52:03.033Z,22.19
2022-08-28T16:55:13.159Z,22.09
2022-08-28T16:58:21.583Z,22.16
2022-08-28T17:01:31.608Z,22.18
2022-08-28T17:04:40.438Z,22.13
2022-08-28T17:07:49.544Z,22.13
2022-08-28T17:10:59.137Z,22.05
2022-08-28T17:14:07.957Z,21.76
2022-08-28T17:17:17.597Z,21.58
2022-08-28T17:20:43.696Z,21.33
2022-08-28T17:23:53.058Z,21.06
2022-08-28T17:27:05.471Z,20.82
2022-08-28T17:30:18.117Z,20.66
2022-08-28T17:33:28.183Z,20.36
2022-08-28T17:36:39.010Z,20.15
2022-08-28T17:39:47.702Z,19.99
2022-08-28T17:42:56.906Z,19.85
2022-08-28T17:46:07.637Z,19.68
2022-08-28T17:49:18.413Z,19.60
2022-08-28T17:52:27.673Z,19.32
2022-08-28T17:55:36.871Z,19.28
2022-08-28T17:58:45.602Z,19.06
2022-08-28T18:01:54.843Z,19.00
2022-08-28T18:05:05.290Z,18.69
2022-08-28T18:08:14.338Z,18.53
2022-08-28T18:11:23.552Z,18.41
2022-08-28T18:14:32.249Z,18.34
2022-08-28T18:17:43.307Z,18.32
2022-08-28T18:20:54.028Z,18.13
2022-08-28T18:24:02.693Z,18.02
2022-08-28T18:27:11.979Z,17.90
2022-08-28T18:30:20.708Z,17.95
2022-08-28T18:33:29.831Z,17.97
2022-08-28T18:36:41.637Z,17.77
2022-08-28T18:39:51.730Z,17.72
2022-08-28T18:43:03.510Z,17.66
2022-08-28T18:46:14.298Z,17.54
2022-08-28T18:49:22.886Z,17.50
2022-08-28T18:52:32.713Z,17.48
2022-08-28T18:55:41.390Z,17.47
2022-08-28T18:58:51.403Z,17.36
2022-08-28T19:02:00.631Z,17.40
2022-08-28T19:05:10.910Z,17.27
2022-08-28T19:08:20.768Z,17.20
2022-08-28T19:11:31.346Z,17.18
2022-08-28T19:14:39.971Z,17.15
2022-08-28T19:17:48.700Z,17.03
2022-08-28T19:21:05.851Z,16.99
2022-08-28T19:24:17.878Z,16.95
2022-08-28T19:27:26.790Z,16.90
2022-08-28T19:30:39.022Z,16.84
2022-08-28T19:33:51.746Z,16.97
2022-08-28T19:37:01.512Z,16.78
2022-08-28T19:40:13.949Z,16.63
2022-08-28T19:43:22.656Z,16.53
2022-08-28T19:46:31.551Z,16.48
2022-08-28T19:49:43.839Z,16.51
2022-08-28T19:52:52.342Z,16.47
2022-08-28T19:56:02.094Z,16.44
2022-08-28T19:59:11.027Z,16.45
2022-08-28T20:02:20.663Z,16.63
2022-08-28T20:05:29.452Z,16.76
2022-08-28T20:08:38.095Z,16.58
2022-08-28T20:11:49.739Z,16.38
2022-08-28T20:15:03.132Z,16.26
2022-08-28T20:18:13.734Z,16.20
2022-08-28T20:21:36.705Z,16.33
2022-08-28T20:24:47.412Z,16.17
2022-08-28T20:28:01.678Z,16.10
2022-08-28T20:31:14.341Z,16.05
2022-08-28T20:34:23.476Z,16.07
2022-08-28T20:37:34.161Z,16.02
2022-08-28T20:40:53.526Z,15.93
2022-08-28T20:44:10.475Z,15.90
2022-08-28T20:47:20.338Z,15.86
2022-08-28T20:50:32.302Z,15.86
2022-08-28T20:53:41.730Z,15.88
2022-08-28T20:56:52.672Z,15.83
2022-08-28T21:00:05.613Z,15.78
2022-08-28T21:03:14.889Z,15.75
2022-08-28T21:06:23.417Z,15.78
2022-08-28T21:09:41.043Z,15.69
2022-08-28T21:13:00.367Z,15.67
2022-08-28T21:16:10.140Z,15.66
2022-08-28T21:19:18.867Z,15.78
2022-08-28T21:22:27.469Z,15.67
2022-08-28T21:25:35.902Z,15.59
2022-08-28T21:28:48.372Z,15.53
2022-08-28T21:31:58.210Z,15.52
2022-08-28T21:35:10.994Z,15.44
2022-08-28T21:38:19.631Z,15.52
2022-08-28T21:41:28.100Z,15.49
2022-08-28T21:44:38.310Z,15.50
2022-08-28T21:47:48.036Z,15.60
2022-08-28T21:50:56.892Z,15.45
2022-08-28T21:54:06.299Z,15.33
2022-08-28T21:57:14.811Z,15.38
2022-08-28T22:00:24.770Z,15.36
2022-08-28T22:03:34.845Z,15.35
2022-08-28T22:06:43.241Z,15.37
2022-08-28T22:09:51.898Z,15.35
2022-08-28T22:13:00.591Z,15.33
2022-08-28T22:16:09.440Z,15.34
2022-08-28T22:19:19.091Z,15.27
2022-08-28T22:22:59.270Z,15.31
2022-08-28T22:26:12.359Z,15.11
2022-08-28T22:29:20.819Z,15.03
2022-08-28T22:32:29.304Z,15.05
2022-08-28T22:35:39.724Z,15.14
2022-08-28T22:38:53.316Z,14.98
2022-08-28T22:42:02.139Z,15.07
2022-08-28T22:45:11.533Z,15.03
2022-08-28T22:48:20.305Z,15.03
2022-08-28T22:51:30.105Z,14.95
2022-08-28T22:54:38.921Z,14.92
2022-08-28T22:57:47.744Z,14.91
2022-08-28T23:00:56.186Z,14.85
2022-08-28T23:04:05.522Z,14.87
2022-08-28T23:07:17.557Z,14.83
2022-08-28T23:10:42.383Z,14.90
2022-08-28T23:13:54.360Z,15.04
2022-08-28T23:17:04.587Z,15.08
2022-08-28T23:20:24.777Z,14.81
2022-08-28T23:23:35.447Z,14.76
2022-08-28T23:26:44.502Z,14.62
2022-08-28T23:30:16.980Z,14.55
2022-08-28T23:33:25.121Z,14.55
2022-08-28T23:36:35.892Z,14.53
2022-08-28T23:39:46.074Z,14.47
2022-08-28T23:42:56.601Z,14.46
2022-08-28T23:46:05.778Z,14.55
2022-08-28T23:49:15.282Z,14.47
2022-08-28T23:52:26.227Z,14.43
2022-08-28T23:55:35.917Z,14.35
2022-08-28T23:58:45.097Z,14.29
